LFRC/CER METAR and TAF weather

Enter ICAO airport designator
Station Type Date Time Source
LFRC METAR 2019/11/21 03:30 UTC NOAA

LFRC 210330Z AUTO 13010KT CAVOK 04/03 Q1002


Station Type Date Time Source
LFRC Decoded METAR 2019/11/21 03:30 UTC NOAA

Cherbourg / Maupertus, France (LFRC) 49-39N 001-28W 139M
Nov 20, 2019 - 10:30 PM EST / 2019.11.21 0330 UTC
Wind: from the SE (130 degrees) at 12 MPH (10 KT):0
Visibility: greater than 7 mile(s):0
Temperature: 39 F (4 C)
Dew Point: 37 F (3 C)
Relative Humidity: 93%
Pressure (altimeter): 29.59 in. Hg (1002 hPa)
ob: LFRC 210330Z AUTO 13010KT CAVOK 04/03 Q1002
cycle: 3

Station Type Date Time Source
LFRC TAF 2008/10/12 17:07 UTC NOAA

TAF
AMD LFRC 121707Z 121721 CNL

Example: see airport list